createdAt,value
2023-04-12T00:03:39.424Z,-65
2023-04-12T00:08:42.824Z,-64
2023-04-12T00:13:44.321Z,-62
2023-04-12T00:18:45.841Z,-63
2023-04-12T00:23:47.617Z,-65
2023-04-12T00:28:49.112Z,-65
2023-04-12T00:33:50.626Z,-62
2023-04-12T00:38:52.164Z,-66
2023-04-12T00:43:53.906Z,-65
2023-04-12T00:48:57.084Z,-66
2023-04-12T00:54:00.049Z,-66
2023-04-12T00:59:02.189Z,-66
2023-04-12T01:04:04.752Z,-66
2023-04-12T01:09:34.433Z,-66
2023-04-12T01:14:44.441Z,-67
2023-04-12T01:20:13.847Z,-65
2023-04-12T01:25:32.614Z,-68
2023-04-12T01:30:34.870Z,-66
2023-04-12T01:35:37.966Z,-66
2023-04-12T01:40:42.511Z,-68
2023-04-12T01:45:44.236Z,-70
2023-04-12T01:51:10.706Z,-61
2023-04-12T01:56:13.096Z,-66
2023-04-12T02:01:16.140Z,-67
2023-04-12T02:06:22.931Z,-66
2023-04-12T02:11:24.648Z,-66
2023-04-12T02:16:29.489Z,-64
2023-04-12T02:21:42.867Z,-67
2023-04-12T02:26:44.352Z,-68
2023-04-12T02:31:46.483Z,-67
2023-04-12T02:36:49.303Z,-67
2023-04-12T02:41:51.057Z,-67
2023-04-12T02:46:52.591Z,-68
2023-04-12T02:51:54.065Z,-68
2023-04-12T02:56:55.831Z,-66
2023-04-12T03:01:57.466Z,-67
2023-04-12T03:06:59.273Z,-66
2023-04-12T03:12:02.130Z,-66
2023-04-12T03:17:03.616Z,-65
2023-04-12T03:22:06.194Z,-64
2023-04-12T03:27:08.360Z,-65
2023-04-12T03:32:09.882Z,-65
2023-04-12T03:37:11.512Z,-66
2023-04-12T03:42:25.487Z,-66
2023-04-12T03:47:33.780Z,-66
2023-04-12T03:52:35.845Z,-65
2023-04-12T03:57:37.436Z,-65
2023-04-12T04:02:39.190Z,-66
2023-04-12T04:07:40.796Z,-65
2023-04-12T04:12:42.327Z,-66
2023-04-12T04:17:44.821Z,-62
2023-04-12T04:22:49.984Z,-66
2023-04-12T04:27:52.091Z,-67
2023-04-12T04:32:53.726Z,-67
2023-04-12T04:37:55.728Z,-66
2023-04-12T04:42:57.887Z,-67
2023-04-12T04:47:59.472Z,-67
2023-04-12T04:53:01.080Z,-63
2023-04-12T04:58:02.573Z,-67
2023-04-12T05:03:04.340Z,-66
2023-04-12T05:08:06.216Z,-63
2023-04-12T05:13:07.701Z,-63
2023-04-12T05:18:09.219Z,-63
2023-04-12T05:23:10.952Z,-62
2023-04-12T05:28:14.387Z,-63
2023-04-12T05:33:16.025Z,-63
2023-04-12T05:38:17.607Z,-62
2023-04-12T05:43:19.167Z,-65
2023-04-12T05:48:21.647Z,-62
2023-04-12T05:53:23.152Z,-62
2023-04-12T05:58:24.788Z,-62
2023-04-12T06:03:26.784Z,-63
2023-04-12T06:08:29.496Z,-65
2023-04-12T06:13:31.221Z,-64
2023-04-12T06:18:33.216Z,-65
2023-04-12T06:23:34.741Z,-65
2023-04-12T06:28:36.443Z,-67
2023-04-12T06:33:38.017Z,-65
2023-04-12T06:38:39.618Z,-64
2023-04-12T06:43:41.156Z,-66
2023-04-12T06:48:42.648Z,-69
2023-04-12T06:53:44.323Z,-70
2023-04-12T06:58:46.058Z,-69
2023-04-12T07:03:47.678Z,-69
2023-04-12T07:08:49.695Z,-69
2023-04-12T07:13:51.626Z,-68
2023-04-12T07:18:53.353Z,-68
2023-04-12T07:23:55.873Z,-68
2023-04-12T07:28:57.800Z,-65
2023-04-12T07:33:59.693Z,-64
2023-04-12T07:39:01.353Z,-65
2023-04-12T07:44:02.841Z,-65
2023-04-12T07:49:04.493Z,-65
2023-04-12T07:54:06.364Z,-66
2023-04-12T07:59:08.039Z,-65
2023-04-12T08:04:09.598Z,-67
2023-04-12T08:09:11.254Z,-67
2023-04-12T08:14:13.331Z,-67
2023-04-12T08:19:14.850Z,-68
2023-04-12T08:24:16.327Z,-68
2023-04-12T08:29:18.375Z,-67
2023-04-12T08:34:22.356Z,-67
2023-04-12T08:39:23.948Z,-67
2023-04-12T08:44:36.610Z,-67
2023-04-12T08:49:38.200Z,-68
2023-04-12T08:54:39.686Z,-67
2023-04-12T08:59:43.696Z,-68
2023-04-12T09:04:50.437Z,-67
2023-04-12T09:09:52.130Z,-68
2023-04-12T09:15:08.590Z,-68
2023-04-12T09:20:16.149Z,-68
2023-04-12T09:25:17.678Z,-69
2023-04-12T09:30:20.833Z,-68
2023-04-12T09:35:35.717Z,-68
2023-04-12T09:40:38.240Z,-68
2023-04-12T09:45:39.975Z,-66
2023-04-12T09:50:41.622Z,-67
2023-04-12T09:55:44.134Z,-68
2023-04-12T10:00:47.102Z,-68
2023-04-12T10:05:49.043Z,-68
2023-04-12T10:10:52.208Z,-67
2023-04-12T10:15:54.070Z,-68
2023-04-12T10:20:56.043Z,-70
2023-04-12T10:25:58.862Z,-69
2023-04-12T10:31:00.716Z,-69
2023-04-12T10:36:06.954Z,-68
2023-04-12T10:41:11.878Z,-69
2023-04-12T10:46:46.181Z,-65
2023-04-12T10:52:09.525Z,-65
2023-04-12T10:57:47.865Z,-64
2023-04-12T11:03:12.108Z,-66
2023-04-12T11:08:14.425Z,-64
2023-04-12T11:13:17.011Z,-68
2023-04-12T11:18:18.927Z,-64
2023-04-12T11:23:22.109Z,-66
2023-04-12T11:28:29.771Z,-66
2023-04-12T11:33:36.867Z,-63
2023-04-12T11:38:39.415Z,-67
2023-04-12T11:43:41.029Z,-67
2023-04-12T11:48:45.928Z,-65
2023-04-12T11:53:52.663Z,-63
2023-04-12T11:58:54.268Z,-65
2023-04-12T12:03:56.512Z,-63
2023-04-12T12:08:59.244Z,-64
2023-04-12T12:14:01.191Z,-66
2023-04-12T12:19:05.678Z,-66
2023-04-12T12:24:07.366Z,-66
2023-04-12T12:29:17.811Z,-66
2023-04-12T12:34:19.760Z,-65
2023-04-12T12:39:21.362Z,-65
2023-04-12T12:44:24.066Z,-64
2023-04-12T12:49:25.815Z,-64
2023-04-12T12:54:40.591Z,-62
2023-04-12T12:59:42.982Z,-65
2023-04-12T13:04:44.634Z,-65
2023-04-12T13:09:46.529Z,-66
2023-04-12T13:14:48.596Z,-62
2023-04-12T13:19:50.190Z,-66
2023-04-12T13:24:51.693Z,-64
2023-04-12T13:29:53.220Z,-64
2023-04-12T13:34:54.745Z,-62
2023-04-12T13:39:56.638Z,-66
2023-04-12T13:44:58.236Z,-65
2023-04-12T13:50:02.952Z,-66
2023-04-12T13:55:08.261Z,-64
2023-04-12T14:00:11.385Z,-65
2023-04-12T14:05:12.901Z,-66
2023-04-12T14:10:14.462Z,-65
2023-04-12T14:15:16.441Z,-64
2023-04-12T14:20:19.494Z,-65
2023-04-12T14:25:21.457Z,-65
2023-04-12T14:30:23.001Z,-64
2023-04-12T14:35:24.884Z,-68
2023-04-12T14:40:26.642Z,-66
2023-04-12T14:45:28.249Z,-63
2023-04-12T14:50:29.886Z,-68
2023-04-12T14:55:32.769Z,-67
2023-04-12T15:00:34.925Z,-67
2023-04-12T15:05:36.489Z,-67
2023-04-12T15:10:38.072Z,-66
2023-04-12T15:15:39.690Z,-67
2023-04-12T15:20:41.208Z,-68
2023-04-12T15:25:42.846Z,-68
2023-04-12T15:30:44.982Z,-68
2023-04-12T15:35:48.335Z,-68
2023-04-12T15:40:59.116Z,-64
2023-04-12T15:46:01.615Z,-66
2023-04-12T15:51:03.666Z,-62
2023-04-12T15:56:05.846Z,-61
2023-04-12T16:01:07.547Z,-64
2023-04-12T16:06:09.289Z,-62
2023-04-12T16:11:12.328Z,-63
2023-04-12T16:16:17.326Z,-63
2023-04-12T16:21:21.403Z,-63
2023-04-12T16:26:23.526Z,-67
2023-04-12T16:31:26.671Z,-63
2023-04-12T16:36:31.604Z,-64
2023-04-12T16:41:33.445Z,-63
2023-04-12T16:46:35.022Z,-62
2023-04-12T16:51:37.664Z,-61
2023-04-12T16:56:39.475Z,-59
2023-04-12T17:01:41.103Z,-63
2023-04-12T17:06:44.249Z,-62
2023-04-12T17:11:46.264Z,-60
2023-04-12T17:16:47.850Z,-62
2023-04-12T17:21:49.825Z,-63
2023-04-12T17:26:51.602Z,-63
2023-04-12T17:31:55.013Z,-62
2023-04-12T17:36:56.962Z,-63
2023-04-12T17:41:58.473Z,-63
2023-04-12T17:47:00.000Z,-63
2023-04-12T17:52:01.545Z,-64
2023-04-12T17:57:04.139Z,-64
2023-04-12T18:02:06.101Z,-63
2023-04-12T18:07:10.327Z,-66
2023-04-12T18:12:13.103Z,-61
2023-04-12T18:17:14.627Z,-63
2023-04-12T18:22:16.296Z,-61
2023-04-12T18:27:17.800Z,-63
2023-04-12T18:32:19.821Z,-62
2023-04-12T18:37:21.639Z,-63
2023-04-12T18:42:23.266Z,-66
2023-04-12T18:47:26.631Z,-65
2023-04-12T18:52:28.143Z,-66
2023-04-12T18:57:30.292Z,-62
2023-04-12T19:02:32.819Z,-61
2023-04-12T19:07:34.484Z,-60
2023-04-12T19:12:36.041Z,-66
2023-04-12T19:17:39.404Z,-65
2023-04-12T19:22:40.942Z,-61
2023-04-12T19:27:42.441Z,-62
2023-04-12T19:32:44.049Z,-65
2023-04-12T19:37:47.057Z,-62
2023-04-12T19:42:48.562Z,-64
2023-04-12T19:47:50.925Z,-64
2023-04-12T19:52:52.743Z,-63
2023-04-12T19:57:55.772Z,-59
2023-04-12T20:02:57.310Z,-63
2023-04-12T20:07:59.088Z,-64
2023-04-12T20:13:00.789Z,-62
2023-04-12T20:18:02.417Z,-63
2023-04-12T20:23:04.637Z,-65
2023-04-12T20:28:09.026Z,-73
2023-04-12T20:33:10.673Z,-71
2023-04-12T20:38:13.222Z,-70
2023-04-12T20:43:15.622Z,-69
2023-04-12T20:48:18.353Z,-70
2023-04-12T20:53:19.818Z,-73
2023-04-12T20:58:21.865Z,-73
2023-04-12T21:03:23.590Z,-76
2023-04-12T21:08:25.207Z,-71
2023-04-12T21:13:26.700Z,-72
2023-04-12T21:18:28.312Z,-73
2023-04-12T21:23:30.243Z,-70
2023-04-12T21:28:31.884Z,-72
2023-04-12T21:33:34.732Z,-70
2023-04-12T21:38:36.581Z,-72
2023-04-12T21:43:41.561Z,-69
2023-04-12T21:48:43.517Z,-66
2023-04-12T21:53:45.150Z,-73
2023-04-12T21:58:46.637Z,-73
2023-04-12T22:03:48.356Z,-72
2023-04-12T22:08:49.981Z,-71
2023-04-12T22:13:51.496Z,-71
2023-04-12T22:18:53.036Z,-70
2023-04-12T22:23:55.245Z,-69
2023-04-12T22:28:56.747Z,-70
2023-04-12T22:33:58.338Z,-73
2023-04-12T22:38:59.984Z,-71
2023-04-12T22:44:01.726Z,-71
2023-04-12T22:49:03.310Z,-70
2023-04-12T22:54:06.362Z,-71
2023-04-12T22:59:14.915Z,-70
2023-04-12T23:04:16.929Z,-69
2023-04-12T23:09:19.783Z,-70
2023-04-12T23:14:21.269Z,-71
2023-04-12T23:19:23.324Z,-69
2023-04-12T23:24:25.058Z,-69
2023-04-12T23:29:26.788Z,-71
2023-04-12T23:34:30.758Z,-73
2023-04-12T23:39:32.139Z,-73
2023-04-12T23:44:33.703Z,-73
2023-04-12T23:49:35.453Z,-68
2023-04-12T23:54:36.988Z,-70
2023-04-12T23:59:39.045Z,-70
